Time;durP1;ratioP1;P1;durP2;ratioP2;P2;SDS_P1;SDS_P2;PMS_P1;PMS_P2;Temp;Humidity;BMP_temperature;BMP_pressure;BME280_temperature;BME280_humidity;BME280_pressure;Samples;Min_cycle;Max_cycle;Signal;HPM_P1;HPM_P2
2022/07/01 00:01:37;;;;;;;12.63;6.73;;;;;;;35.71;44.90;101172.97;6279870;22;20375;-73
2022/07/01 00:04:04;;;;;;;22.37;7.47;;;;;;;35.68;44.63;101176.25;6307634;22;20415;-73
2022/07/01 00:06:30;;;;;;;23.20;6.10;;;;;;;35.73;44.21;101173.50;6279709;22;20712;-73
2022/07/01 00:08:56;;;;;;;19.73;5.93;;;;;;;35.80;43.82;101168.56;6279885;22;20387;-73
2022/07/01 00:11:22;;;;;;;19.10;5.70;;;;;;;35.88;43.71;101178.75;6279830;22;20400;-73
2022/07/01 00:13:48;;;;;;;18.00;5.00;;;;;;;35.84;42.90;101175.00;6254247;22;20387;-72
2022/07/01 00:16:15;;;;;;;23.13;6.63;;;;;;;35.82;43.21;101165.59;6307400;22;20388;-73
2022/07/01 00:18:41;;;;;;;13.30;6.10;;;;;;;35.82;44.20;101161.00;6279340;22;20419;-73
2022/07/01 00:21:08;;;;;;;14.00;6.00;;;;;;;35.73;44.27;101152.72;6279814;22;20377;-73
2022/07/01 00:23:34;;;;;;;14.40;5.60;;;;;;;35.62;44.34;101155.78;6279659;22;20787;-72
2022/07/01 00:26:00;;;;;;;18.33;8.37;;;;;;;35.60;45.00;101142.56;6274182;22;20437;-73
2022/07/01 00:28:27;;;;;;;12.57;6.23;;;;;;;35.65;44.73;101141.72;6276542;22;20392;-73
2022/07/01 00:30:53;;;;;;;25.77;7.17;;;;;;;35.87;44.31;101141.25;6274380;22;20380;-73
2022/07/01 00:33:19;;;;;;;18.70;6.60;;;;;;;35.83;43.99;101142.91;6274477;22;20445;-73
2022/07/01 00:35:45;;;;;;;16.23;7.43;;;;;;;35.88;43.88;101134.75;6274410;22;20435;-73
2022/07/01 00:38:11;;;;;;;30.43;6.33;;;;;;;35.83;43.87;101132.09;6276242;22;20902;-72
2022/07/01 00:40:38;;;;;;;20.03;7.30;;;;;;;35.77;44.12;101125.94;6276586;22;20693;-71
2022/07/01 00:43:04;;;;;;;19.53;5.83;;;;;;;35.72;44.65;101132.19;6274156;22;20908;-71
2022/07/01 00:45:30;;;;;;;14.93;5.87;;;;;;;35.64;44.74;101137.41;6274465;22;20382;-71
2022/07/01 00:47:57;;;;;;;15.17;5.73;;;;;;;35.62;44.62;101139.59;6274295;22;20386;-71
2022/07/01 00:50:24;;;;;;;19.17;7.00;;;;;;;35.59;44.98;101132.06;6274143;22;20412;-71
2022/07/01 00:52:50;;;;;;;14.10;5.20;;;;;;;35.49;45.39;101136.47;6274291;22;20385;-71
2022/07/01 00:55:16;;;;;;;16.73;7.70;;;;;;;35.55;45.77;101117.53;6274307;22;20385;-71
2022/07/01 00:57:44;;;;;;;31.93;7.30;;;;;;;35.49;46.13;101122.16;6274222;22;20916;-71
2022/07/01 01:00:20;;;;;;;22.00;5.67;;;;;;;35.61;45.56;101116.41;6274286;22;20425;-71
2022/07/01 01:02:47;;;;;;;24.27;6.50;;;;;;;35.36;46.09;101120.06;6273344;22;20391;-73
2022/07/01 01:05:13;;;;;;;17.83;4.97;;;;;;;35.29;45.43;101109.59;6273237;22;20473;-73
2022/07/01 01:07:40;;;;;;;19.93;6.23;;;;;;;35.35;45.33;101107.66;6274098;22;20373;-73
2022/07/01 01:10:07;;;;;;;26.53;7.20;;;;;;;35.40;45.62;101116.53;6272327;22;20481;-70
2022/07/01 01:12:33;;;;;;;12.40;6.90;;;;;;;35.44;45.62;101114.91;6273609;22;20742;-71
2022/07/01 01:14:59;;;;;;;14.57;5.63;;;;;;;35.48;45.68;101110.56;6273832;22;20791;-71
2022/07/01 01:17:27;;;;;;;15.70;6.47;;;;;;;35.31;46.00;101112.84;6274229;22;20389;-71
2022/07/01 01:19:53;;;;;;;17.67;6.10;;;;;;;35.45;46.40;101119.22;6273819;22;20516;-70
2022/07/01 01:22:19;;;;;;;15.83;6.70;;;;;;;35.70;45.38;101120.09;6275666;22;20353;-70
2022/07/01 01:24:49;;;;;;;16.70;6.40;;;;;;;35.69;45.56;101113.09;6273807;22;20377;-70
2022/07/01 01:27:16;;;;;;;19.20;7.87;;;;;;;35.67;45.50;101109.88;6298108;22;20506;-70
2022/07/01 01:29:43;;;;;;;17.60;5.90;;;;;;;35.38;46.53;101110.63;6279232;22;20369;-70
2022/07/01 01:32:10;;;;;;;12.90;5.50;;;;;;;35.20;46.46;101116.69;6280884;22;20859;-70
2022/07/01 01:34:38;;;;;;;12.50;5.53;;;;;;;34.59;47.88;101109.75;6255693;22;20381;-70
2022/07/01 01:37:07;;;;;;;16.47;6.57;;;;;;;34.68;47.88;101110.81;6280565;22;20430;-73
2022/07/01 01:39:36;;;;;;;13.33;5.80;;;;;;;34.92;47.33;101107.41;6281023;22;20428;-73
2022/07/01 01:42:04;;;;;;;12.90;4.87;;;;;;;34.94;46.49;101127.66;6280976;22;20376;-71
2022/07/01 01:44:30;;;;;;;19.83;6.50;;;;;;;34.87;46.32;101123.63;6255479;22;20384;-70
2022/07/01 01:46:56;;;;;;;14.87;7.53;;;;;;;34.99;46.87;101116.03;6255403;22;20380;-71
2022/07/01 01:49:22;;;;;;;19.10;6.90;;;;;;;35.01;47.17;101130.03;6280852;22;20732;-72
2022/07/01 01:51:48;;;;;;;11.80;6.10;;;;;;;34.99;47.05;101121.44;6280863;22;20376;-71
2022/07/01 01:54:15;;;;;;;17.83;6.07;;;;;;;35.02;46.56;101117.38;6280655;22;20400;-71
2022/07/01 01:56:41;;;;;;;19.77;7.17;;;;;;;35.09;46.05;101117.84;6280975;22;20404;-73
2022/07/01 01:59:07;;;;;;;19.63;6.20;;;;;;;34.88;46.05;101114.47;6280530;22;20427;-70
2022/07/01 02:01:33;;;;;;;15.57;5.63;;;;;;;35.00;45.90;101114.94;6280532;22;20376;-70
2022/07/01 02:03:59;;;;;;;26.47;8.37;;;;;;;34.91;46.41;101117.38;6308698;22;20427;-70
2022/07/01 02:06:26;;;;;;;17.67;5.83;;;;;;;34.81;47.33;101114.78;6280664;22;20402;-70
2022/07/01 02:08:52;;;;;;;15.70;5.87;;;;;;;34.92;46.91;101120.88;6280862;22;20393;-70
2022/07/01 02:11:19;;;;;;;13.33;5.13;;;;;;;34.73;47.34;101113.44;6279670;22;20408;-73
2022/07/01 02:13:45;;;;;;;11.60;4.93;;;;;;;34.77;47.42;101119.09;6280042;22;20404;-73
2022/07/01 02:16:11;;;;;;;16.63;6.27;;;;;;;34.63;47.94;101118.91;6229665;22;20398;-73
2022/07/01 02:18:38;;;;;;;13.57;7.40;;;;;;;34.95;46.54;101115.78;6252740;22;20491;-71
2022/07/01 02:21:04;;;;;;;11.57;5.37;;;;;;;34.97;46.76;101124.38;6306033;22;20399;-73
2022/07/01 02:23:30;;;;;;;16.53;6.40;;;;;;;35.26;45.77;101112.88;6278368;22;20852;-73
2022/07/01 02:25:56;;;;;;;15.00;6.20;;;;;;;35.19;45.44;101112.41;6272824;22;20769;-71
2022/07/01 02:28:22;;;;;;;13.13;5.00;;;;;;;35.22;45.42;101117.22;6273142;22;20939;-72
2022/07/01 02:30:48;;;;;;;16.10;6.87;;;;;;;35.19;45.40;101104.31;6273288;22;20389;-73
2022/07/01 02:33:14;;;;;;;10.43;6.20;;;;;;;35.17;45.01;101101.06;6275053;22;20423;-71
2022/07/01 02:35:41;;;;;;;13.63;5.13;;;;;;;35.15;45.17;101103.25;6275342;22;20404;-70
2022/07/01 02:38:08;;;;;;;24.00;7.37;;;;;;;35.30;44.67;101095.06;6275824;22;20362;-72
2022/07/01 02:40:41;;;;;;;19.77;6.23;;;;;;;35.16;45.19;101096.75;6249608;22;20382;-71
2022/07/01 02:43:07;;;;;;;22.83;5.33;;;;;;;35.24;44.68;101096.19;6250657;22;20408;-70
2022/07/01 02:45:34;;;;;;;15.07;6.20;;;;;;;35.22;44.76;101092.94;6277103;22;20369;-70
2022/07/01 02:48:01;;;;;;;9.57;4.20;;;;;;;35.38;44.54;101094.44;6275414;22;20460;-73
2022/07/01 02:50:28;;;;;;;14.57;5.30;;;;;;;35.31;44.24;101099.34;6275001;22;20409;-73
2022/07/01 02:52:55;;;;;;;16.53;6.03;;;;;;;35.33;44.21;101101.75;6275399;22;20853;-72
2022/07/01 02:55:21;;;;;;;19.33;7.00;;;;;;;35.23;44.61;101105.34;6275191;22;20447;-73
2022/07/01 02:57:51;;;;;;;17.63;6.53;;;;;;;35.14;44.80;101107.03;6275114;22;20416;-72
2022/07/01 03:00:19;;;;;;;10.50;6.33;;;;;;;35.02;45.15;101101.19;6275445;22;20421;-73
2022/07/01 03:02:45;;;;;;;17.17;6.47;;;;;;;35.31;45.03;101107.44;6249868;22;20381;-72
2022/07/01 03:05:11;;;;;;;20.60;5.57;;;;;;;35.06;45.31;101111.13;6277021;22;20391;-70
2022/07/01 03:07:38;;;;;;;14.23;5.00;;;;;;;35.13;45.03;101113.53;6249639;22;20381;-70
2022/07/01 03:10:07;;;;;;;13.03;5.07;;;;;;;35.30;44.54;101115.78;6249185;22;20405;-70
2022/07/01 03:12:38;;;;;;;20.70;5.43;;;;;;;35.31;44.36;101107.44;6274719;22;20733;-70
2022/07/01 03:15:10;;;;;;;13.03;5.83;;;;;;;35.29;44.42;101115.00;6275070;22;20384;-70
2022/07/01 03:17:39;;;;;;;12.63;3.97;;;;;;;35.14;44.06;101113.22;6277112;22;20358;-71
2022/07/01 03:20:08;;;;;;;12.93;4.50;;;;;;;35.18;44.03;101108.09;6274751;22;20421;-71
2022/07/01 03:22:36;;;;;;;19.97;6.13;;;;;;;35.13;44.39;101108.94;6275023;22;20460;-72
2022/07/01 03:25:03;;;;;;;12.73;5.30;;;;;;;34.88;44.51;101098.28;6274848;22;20388;-72
2022/07/01 03:27:30;;;;;;;15.37;6.33;;;;;;;35.03;44.12;101105.50;6274558;22;20464;-71
2022/07/01 03:29:56;;;;;;;13.97;6.97;;;;;;;35.25;43.93;101101.28;6274809;22;20385;-71
2022/07/01 03:32:23;;;;;;;14.53;4.73;;;;;;;35.49;43.44;101101.38;6276877;22;20849;-72
2022/07/01 03:34:51;;;;;;;19.67;6.13;;;;;;;35.33;43.07;101097.16;6276985;22;20354;-73
2022/07/01 03:37:18;;;;;;;15.17;5.73;;;;;;;35.18;43.24;101087.31;6274646;22;20377;-73
2022/07/01 03:39:45;;;;;;;21.93;5.13;;;;;;;35.34;43.35;101090.69;6274684;22;20421;-73
2022/07/01 03:42:11;;;;;;;17.33;6.37;;;;;;;35.47;42.93;101081.97;6274660;22;20462;-71
2022/07/01 03:44:37;;;;;;;11.13;5.23;;;;;;;35.33;42.64;101082.88;6274802;22;20384;-70
2022/07/01 03:47:05;;;;;;;11.13;5.50;;;;;;;35.26;42.79;101084.00;6277049;22;20386;-71
2022/07/01 03:49:33;;;;;;;15.13;6.53;;;;;;;35.18;43.23;101089.22;6249528;22;20377;-70
2022/07/01 03:51:59;;;;;;;17.97;6.03;;;;;;;35.32;42.72;101084.78;6274616;22;20408;-71
2022/07/01 03:54:38;;;;;;;15.47;5.53;;;;;;;35.27;43.36;101085.63;6276231;22;20357;-70
2022/07/01 03:57:08;;;;;;;11.93;6.00;;;;;;;35.32;43.24;101090.16;6274653;22;20374;-70
2022/07/01 03:59:37;;;;;;;18.47;6.10;;;;;;;35.21;43.59;101078.66;6276441;22;20409;-70
2022/07/01 04:02:05;;;;;;;19.80;5.37;;;;;;;34.98;43.60;101088.25;6274547;22;20378;-70
2022/07/01 04:04:33;;;;;;;19.53;5.10;;;;;;;35.13;43.46;101084.66;6275019;22;20351;-73
2022/07/01 04:07:01;;;;;;;15.53;5.47;;;;;;;35.17;43.14;101092.97;6274386;22;20729;-71
2022/07/01 04:09:29;;;;;;;13.33;6.03;;;;;;;34.97;43.40;101092.03;6274500;22;20374;-70
2022/07/01 04:11:55;;;;;;;11.90;6.07;;;;;;;35.10;43.54;101089.78;6274453;22;20806;-70
2022/07/01 04:14:24;;;;;;;13.63;5.87;;;;;;;34.92;44.24;101102.84;6274365;22;20365;-70
2022/07/01 04:16:51;;;;;;;24.93;5.63;;;;;;;34.95;44.67;101110.41;6274357;22;20374;-70
2022/07/01 04:19:17;;;;;;;14.73;6.67;;;;;;;34.77;44.88;101112.91;6274375;22;20496;-71
2022/07/01 04:24:32;;;;;;;24.00;6.30;;;;;;;34.98;44.16;101104.44;6276187;22;20345;-73
2022/07/01 04:27:00;;;;;;;14.93;7.53;;;;;;;34.90;44.11;101099.59;6273837;22;20433;-73
2022/07/01 04:29:28;;;;;;;16.40;5.93;;;;;;;35.06;44.53;101105.75;6249271;22;20465;-70
2022/07/01 04:31:56;;;;;;;12.90;6.40;;;;;;;35.15;44.23;101108.63;6276333;22;20349;-72
2022/07/01 04:34:22;;;;;;;16.37;5.57;;;;;;;35.14;44.01;101104.34;6276360;22;20342;-70
2022/07/01 04:36:48;;;;;;;17.90;6.17;;;;;;;35.28;44.31;101110.69;6274703;22;20385;-69
2022/07/01 04:39:14;;;;;;;16.53;7.17;;;;;;;35.28;44.14;101108.00;6276338;22;20485;-70
2022/07/01 04:41:59;;;;;;;18.73;5.50;;;;;;;35.23;44.16;101105.34;6274391;22;20850;-73
2022/07/01 04:44:25;;;;;;;12.43;5.17;;;;;;;35.39;43.30;101117.63;6274137;22;20849;-72
2022/07/01 04:46:52;;;;;;;12.33;3.77;;;;;;;35.23;43.71;101116.13;6276333;22;20354;-70
2022/07/01 04:49:18;;;;;;;17.90;5.03;;;;;;;35.30;44.38;101131.97;6276384;22;20672;-70
2022/07/01 04:51:44;;;;;;;16.23;6.03;;;;;;;35.38;44.17;101126.81;6274242;22;20382;-71
2022/07/01 04:54:11;;;;;;;18.13;6.50;;;;;;;35.22;44.50;101126.09;6274136;22;20370;-72
2022/07/01 04:56:38;;;;;;;13.00;7.30;;;;;;;35.17;44.50;101131.56;6248576;22;20373;-73
2022/07/01 04:59:04;;;;;;;13.43;6.10;;;;;;;35.13;44.97;101143.97;6274561;22;20921;-72
2022/07/01 05:01:31;;;;;;;13.23;6.03;;;;;;;35.13;45.27;101146.69;6274236;22;20374;-73
2022/07/01 05:03:58;;;;;;;11.87;4.90;;;;;;;35.12;45.18;101145.06;6274305;22;20370;-73
2022/07/01 05:06:25;;;;;;;12.70;5.33;;;;;;;35.35;44.56;101156.22;6276076;22;20354;-70
2022/07/01 05:08:51;;;;;;;20.20;7.53;;;;;;;35.10;44.99;101159.91;6273970;22;20374;-70
2022/07/01 05:11:17;;;;;;;21.63;6.50;;;;;;;35.20;45.14;101163.34;6273985;22;20373;-70
2022/07/01 05:13:44;;;;;;;13.57;5.70;;;;;;;35.10;44.76;101168.00;6274105;22;20860;-70
2022/07/01 05:16:10;;;;;;;24.90;6.77;;;;;;;34.93;44.56;101165.69;6273993;22;20405;-70
2022/07/01 05:24:07;;;;;;;9.17;4.53;;;;;;;35.12;44.83;101179.31;6275566;22;20446;-73
2022/07/01 05:26:33;;;;;;;11.60;5.70;;;;;;;35.21;44.44;101183.81;6285832;22;20515;-73
2022/07/01 05:29:00;;;;;;;11.37;4.90;;;;;;;35.31;44.57;101193.75;6279001;22;20411;-73
2022/07/01 05:31:26;;;;;;;11.40;5.10;;;;;;;35.16;44.71;101193.84;6279210;22;20399;-71
2022/07/01 05:33:52;;;;;;;7.23;3.87;;;;;;;35.18;45.15;101199.78;6278975;22;20407;-72
2022/07/01 05:36:18;;;;;;;10.53;5.63;;;;;;;35.07;45.59;101206.31;6278797;22;20916;-73
2022/07/01 05:38:44;;;;;;;13.30;5.37;;;;;;;35.30;45.19;101204.81;6278866;22;20426;-73
2022/07/01 05:41:10;;;;;;;9.13;5.13;;;;;;;35.24;45.11;101207.56;6306711;22;20365;-73
2022/07/01 05:43:37;;;;;;;22.80;7.80;;;;;;;35.23;45.07;101218.59;6253469;22;20383;-72
2022/07/01 05:46:03;;;;;;;13.07;7.20;;;;;;;35.50;44.67;101219.00;6306471;22;20396;-72
2022/07/01 05:48:29;;;;;;;12.70;6.37;;;;;;;35.46;44.88;101222.53;6253487;22;20857;-73
2022/07/01 05:50:55;;;;;;;17.07;10.37;;;;;;;35.47;44.80;101224.13;6278879;22;20864;-71
2022/07/01 05:53:22;;;;;;;15.70;8.00;;;;;;;35.40;44.92;101229.03;6278957;22;20437;-70
2022/07/01 05:55:48;;;;;;;21.73;10.20;;;;;;;35.33;44.99;101232.03;6279102;22;20438;-70
2022/07/01 05:58:15;;;;;;;15.03;8.90;;;;;;;35.27;45.70;101238.53;6278872;22;20381;-70
2022/07/01 06:00:42;;;;;;;17.63;10.83;;;;;;;35.27;45.66;101247.44;6278783;22;20420;-70
2022/07/01 06:03:13;;;;;;;21.83;13.53;;;;;;;35.17;45.90;101247.50;6254500;22;20409;-69
2022/07/01 06:05:41;;;;;;;22.00;13.07;;;;;;;35.12;46.20;101247.53;6306639;22;20422;-68
2022/07/01 06:08:07;;;;;;;21.40;12.90;;;;;;;34.69;46.97;101247.13;6278978;22;20419;-67
2022/07/01 06:10:34;;;;;;;22.23;12.47;;;;;;;34.54;47.54;101249.84;6253217;22;20388;-68
2022/07/01 06:13:01;;;;;;;17.50;10.40;;;;;;;34.78;47.38;101249.25;6279658;22;20376;-68
2022/07/01 06:15:27;;;;;;;17.73;11.70;;;;;;;34.64;47.32;101252.53;6278864;22;20486;-67
2022/07/01 06:17:54;;;;;;;15.20;10.33;;;;;;;34.77;47.43;101256.53;6254611;22;20432;-70
2022/07/01 06:20:21;;;;;;;19.20;9.60;;;;;;;34.65;47.39;101253.34;6280762;22;20493;-70
2022/07/01 06:22:47;;;;;;;12.00;9.50;;;;;;;34.95;46.68;101255.97;6280261;22;20384;-70
2022/07/01 06:25:13;;;;;;;24.23;12.97;;;;;;;34.93;46.93;101260.81;6280224;22;20415;-70
2022/07/01 06:27:43;;;;;;;21.73;13.67;;;;;;;34.93;47.02;101263.53;6274877;22;20479;-73
2022/07/01 06:30:10;;;;;;;20.63;14.07;;;;;;;35.04;46.60;101258.88;6277335;22;20381;-70
2022/07/01 06:32:37;;;;;;;21.60;12.70;;;;;;;35.15;46.78;101260.44;6275264;22;20418;-71
2022/07/01 06:35:04;;;;;;;28.33;18.90;;;;;;;35.19;46.35;101264.22;6277067;22;20687;-70
2022/07/01 06:37:35;;;;;;;25.77;16.50;;;;;;;35.01;47.12;101259.44;6275249;22;20373;-71
2022/07/01 06:40:06;;;;;;;31.10;16.17;;;;;;;34.91;47.13;101267.53;6274813;22;20547;-68
2022/07/01 06:42:33;;;;;;;23.23;13.20;;;;;;;34.78;47.69;101265.41;6276984;22;20346;-69
2022/07/01 06:44:59;;;;;;;23.63;14.40;;;;;;;35.04;47.09;101260.75;6275331;22;20374;-71
2022/07/01 17:17:19;;;;;;;33.47;16.33;;;;;;;37.86;41.27;101052.75;6275499;22;20804;-71
2022/07/01 17:19:45;;;;;;;21.50;16.13;;;;;;;37.75;42.01;101057.56;6247298;22;20437;-72
2022/07/01 17:22:15;;;;;;;23.00;15.90;;;;;;;37.73;41.91;101046.19;6275915;22;20437;-71
2022/07/01 17:25:18;;;;;;;23.00;17.30;;;;;;;37.71;41.97;101051.13;6247871;22;20389;-68
2022/07/01 17:28:09;;;;;;;35.90;18.10;;;;;;;37.72;42.06;101052.72;6228594;22;20377;-69
2022/07/01 17:31:02;;;;;;;21.57;16.70;;;;;;;37.78;41.98;101053.44;6247460;22;20370;-69
2022/07/01 17:33:29;;;;;;;25.60;16.90;;;;;;;37.88;41.63;101053.28;6247374;22;20382;-71
2022/07/01 17:35:58;;;;;;;33.53;16.90;;;;;;;37.90;41.55;101046.44;6247866;22;20488;-71
2022/07/01 17:38:38;;;;;;;25.33;15.43;;;;;;;37.93;41.60;101058.56;6247574;22;20382;-71
2022/07/01 17:41:07;;;;;;;29.43;16.30;;;;;;;37.89;41.95;101057.56;6248206;22;20422;-68
2022/07/01 17:43:34;;;;;;;27.60;20.07;;;;;;;37.89;42.19;101057.56;6223112;22;20381;-68
2022/07/01 17:46:02;;;;;;;25.27;17.00;;;;;;;37.88;42.25;101061.41;6248240;22;20448;-69
2022/07/01 17:48:30;;;;;;;28.90;18.50;;;;;;;37.86;42.18;101063.56;6274532;22;20671;-68
2022/07/01 17:50:56;;;;;;;25.40;16.53;;;;;;;37.84;42.28;101065.78;6247693;22;20415;-71
2022/07/01 17:53:26;;;;;;;35.23;16.90;;;;;;;37.84;41.81;101072.00;6247804;22;20381;-71
2022/07/01 17:55:54;;;;;;;21.37;15.67;;;;;;;37.84;41.96;101069.31;6275255;22;20849;-70
2022/07/01 17:58:22;;;;;;;23.30;16.17;;;;;;;37.72;42.10;101068.16;6275093;22;20388;-70
2022/07/01 18:00:48;;;;;;;26.40;17.30;;;;;;;37.71;42.42;101061.16;6247470;22;20448;-71
2022/07/01 18:03:15;;;;;;;23.03;15.20;;;;;;;37.52;42.47;101062.03;6247530;22;20742;-68
2022/07/01 18:05:42;;;;;;;21.30;13.87;;;;;;;37.52;42.33;101070.16;6247545;22;20380;-67
2022/07/01 18:08:09;;;;;;;36.17;13.80;;;;;;;37.23;43.22;101073.06;6274545;22;20405;-69
2022/07/01 18:10:50;;;;;;;21.77;16.20;;;;;;;37.30;42.96;101069.97;6247443;22;20385;-69
2022/07/01 18:13:28;;;;;;;33.30;17.43;;;;;;;37.23;43.16;101072.25;6199770;22;20717;-68
2022/07/01 18:16:04;;;;;;;27.87;17.47;;;;;;;37.22;43.81;101074.16;6228127;23;21002;-68
2022/07/01 18:18:30;;;;;;;23.53;14.87;;;;;;;37.38;43.43;101074.72;6189954;23;20456;-68
2022/07/01 18:21:00;;;;;;;40.97;16.93;;;;;;;37.31;42.82;101072.38;6214241;23;20745;-68
2022/07/01 18:24:00;;;;;;;24.00;14.00;;;;;;;37.16;43.29;101069.94;6213919;23;20708;-69
2022/07/01 18:26:28;;;;;;;28.57;15.30;;;;;;;37.23;42.80;101074.97;6150161;23;20379;-69
2022/07/01 18:29:00;;;;;;;22.17;14.33;;;;;;;37.21;43.14;101087.97;6214368;23;20409;-68
2022/07/01 18:31:31;;;;;;;28.57;14.60;;;;;;;37.22;42.69;101079.56;6216209;23;20356;-69
2022/07/01 18:34:03;;;;;;;30.30;15.63;;;;;;;37.07;42.96;101088.72;6213878;23;20382;-68
2022/07/01 18:36:37;;;;;;;26.57;14.90;;;;;;;37.13;43.39;101092.94;6213092;23;20489;-68
2022/07/01 18:39:03;;;;;;;27.30;15.17;;;;;;;36.95;43.50;101091.06;6213830;23;20425;-69
2022/07/01 18:41:29;;;;;;;30.53;13.70;;;;;;;37.07;43.42;101091.41;6215543;23;20394;-68
2022/07/01 18:43:56;;;;;;;24.33;16.47;;;;;;;37.04;43.47;101099.34;6214493;23;20384;-69
2022/07/01 18:46:22;;;;;;;26.50;17.50;;;;;;;36.92;43.76;101097.06;6215581;23;20360;-68
2022/07/01 18:48:50;;;;;;;43.70;18.80;;;;;;;37.01;43.96;101105.31;6213985;23;20906;-68
2022/07/01 18:51:16;;;;;;;27.17;17.03;;;;;;;36.99;43.60;101104.81;6213296;23;20387;-68
2022/07/01 18:53:42;;;;;;;23.60;17.20;;;;;;;36.96;43.78;101114.31;6188689;23;20387;-69
2022/07/01 18:56:09;;;;;;;29.37;15.90;;;;;;;36.96;43.85;101110.81;6216288;23;20379;-68
2022/07/01 18:58:35;;;;;;;34.53;18.50;;;;;;;36.93;44.66;101123.00;6214354;23;20375;-68
2022/07/01 19:01:01;;;;;;;30.17;18.23;;;;;;;37.03;44.05;101122.06;6214611;23;20399;-71
2022/07/01 19:03:33;;;;;;;23.80;17.87;;;;;;;37.07;43.64;101121.16;6189395;23;20379;-71
2022/07/01 19:05:59;;;;;;;39.53;18.37;;;;;;;36.70;43.46;101130.06;6213889;23;20407;-68
2022/07/01 19:08:25;;;;;;;30.70;14.87;;;;;;;36.65;44.12;101132.03;6214409;23;20414;-69
2022/07/01 19:10:51;;;;;;;21.97;15.87;;;;;;;36.68;43.98;101139.56;6214346;23;20368;-68
2022/07/01 19:13:18;;;;;;;26.63;14.77;;;;;;;36.56;43.93;101148.09;6214477;23;20395;-68
2022/07/01 19:15:45;;;;;;;29.43;17.63;;;;;;;36.67;43.52;101140.66;6223167;23;20548;-68
2022/07/01 19:18:11;;;;;;;27.27;17.37;;;;;;;36.89;43.36;101148.22;6219024;23;21012;-68
2022/07/01 19:20:37;;;;;;;27.70;15.23;;;;;;;36.79;43.60;101149.94;6218422;23;20917;-68
2022/07/01 19:23:07;;;;;;;22.70;14.50;;;;;;;36.66;43.55;101156.06;6218444;23;20378;-68
2022/07/01 19:25:33;;;;;;;28.90;15.70;;;;;;;36.58;43.74;101152.09;6245695;23;20390;-68
2022/07/01 19:27:59;;;;;;;23.97;14.40;;;;;;;36.75;43.27;101151.63;6218980;23;20377;-69
2022/07/01 19:30:26;;;;;;;28.87;17.73;;;;;;;36.83;43.15;101163.66;6245636;23;20362;-68
2022/07/01 19:32:52;;;;;;;31.53;16.10;;;;;;;36.78;43.61;101158.34;6246255;23;20521;-68
2022/07/01 19:35:23;;;;;;;24.43;18.07;;;;;;;36.82;43.30;101159.38;6218926;23;20402;-68
2022/07/01 19:37:50;;;;;;;26.57;18.63;;;;;;;36.88;43.39;101162.84;6218646;23;20382;-68
2022/07/01 19:40:16;;;;;;;24.70;15.87;;;;;;;36.66;43.12;101166.88;6168801;23;20469;-69
2022/07/01 19:42:42;;;;;;;37.60;16.20;;;;;;;36.53;43.77;101160.28;6218379;23;20382;-68
2022/07/01 19:45:09;;;;;;;28.40;14.90;;;;;;;36.54;43.71;101161.91;6245957;23;20357;-68
2022/07/01 19:47:35;;;;;;;28.80;14.43;;;;;;;36.67;44.14;101157.69;6218143;23;20445;-68
2022/07/01 19:50:01;;;;;;;30.37;16.93;;;;;;;36.69;43.88;101166.28;6218985;23;20375;-69
2022/07/01 19:52:28;;;;;;;26.57;15.53;;;;;;;36.88;43.70;101165.53;6218915;23;20461;-68
2022/07/01 19:54:54;;;;;;;35.03;18.40;;;;;;;36.95;42.92;101174.09;6218883;23;20402;-68
2022/07/01 19:57:20;;;;;;;25.50;13.67;;;;;;;36.97;43.22;101175.41;6218902;23;20873;-68
2022/07/01 19:59:46;;;;;;;27.63;16.83;;;;;;;37.04;42.59;101183.16;6193584;23;20422;-68
2022/07/01 20:02:12;;;;;;;23.27;13.43;;;;;;;37.07;43.17;101177.97;6218814;23;20383;-68
2022/07/01 20:04:38;;;;;;;23.93;14.63;;;;;;;36.92;43.64;101188.22;6245128;23;20871;-68
2022/07/01 20:07:05;;;;;;;37.00;16.63;;;;;;;36.78;43.87;101190.78;6244453;23;20355;-67
2022/07/01 20:09:31;;;;;;;24.10;15.63;;;;;;;36.87;43.10;101183.66;6218137;23;20465;-69
2022/07/01 20:11:57;;;;;;;21.27;15.87;;;;;;;36.90;43.07;101179.59;6217672;23;20390;-67
2022/07/01 20:14:23;;;;;;;28.73;16.30;;;;;;;36.73;43.41;101185.44;6245461;23;20358;-68
2022/07/01 20:16:50;;;;;;;27.60;15.03;;;;;;;36.75;43.37;101184.06;6245120;22;20433;-68
2022/07/01 20:19:16;;;;;;;33.80;15.40;;;;;;;36.43;43.99;101189.31;6218276;23;20793;-69
2022/07/01 20:21:42;;;;;;;20.27;14.70;;;;;;;36.36;43.88;101189.63;6245359;23;20367;-70
2022/07/01 20:24:08;;;;;;;24.90;16.07;;;;;;;36.32;43.79;101202.09;6216309;23;20375;-68
2022/07/01 20:26:35;;;;;;;29.23;16.60;;;;;;;36.19;44.42;101205.50;6217758;23;20420;-69
2022/07/01 20:29:01;;;;;;;37.17;14.53;;;;;;;36.23;44.25;101211.94;6218195;23;20366;-68
2022/07/01 20:31:27;;;;;;;28.23;16.13;;;;;;;36.17;44.12;101215.78;6218331;23;20410;-69
2022/07/01 20:33:53;;;;;;;29.70;18.00;;;;;;;36.43;44.23;101219.03;6245636;23;20363;-72
2022/07/01 20:36:20;;;;;;;33.10;16.97;;;;;;;36.26;44.38;101219.44;6217865;23;20381;-69
2022/07/01 20:38:46;;;;;;;25.10;15.63;;;;;;;36.18;43.62;101220.88;6217677;23;20386;-69
2022/07/01 20:41:12;;;;;;;24.03;14.93;;;;;;;36.33;43.44;101219.91;6218037;23;20866;-69
2022/07/01 20:43:38;;;;;;;33.73;15.40;;;;;;;36.31;44.43;101217.50;6218121;23;20389;-69
2022/07/01 20:46:04;;;;;;;30.63;19.67;;;;;;;36.47;44.32;101225.50;6218269;23;20411;-69
2022/07/01 20:48:30;;;;;;;33.87;16.07;;;;;;;36.20;44.39;101221.41;6218140;23;20394;-69
2022/07/01 20:50:58;;;;;;;29.53;14.90;;;;;;;36.32;44.34;101229.91;6218206;23;20382;-68
2022/07/01 20:53:25;;;;;;;19.93;14.37;;;;;;;36.36;44.28;101246.38;6218230;23;20375;-69
2022/07/01 20:55:51;;;;;;;26.90;14.80;;;;;;;36.51;44.29;101248.13;6218069;23;20410;-70
2022/07/01 20:58:17;;;;;;;29.30;16.67;;;;;;;36.64;43.53;101244.72;6217176;23;20389;-72
2022/07/01 21:00:43;;;;;;;25.60;13.90;;;;;;;36.50;43.53;101241.13;6245616;23;20406;-72
2022/07/01 21:03:09;;;;;;;22.70;14.90;;;;;;;36.43;43.06;101257.66;6218464;23;20406;-73
2022/07/01 21:05:35;;;;;;;26.13;13.67;;;;;;;36.37;44.13;101250.69;6245659;23;20362;-72
2022/07/01 21:08:02;;;;;;;40.07;16.30;;;;;;;36.12;44.58;101250.94;6218292;23;20393;-72
2022/07/01 21:10:29;;;;;;;25.70;17.87;;;;;;;36.24;44.47;101254.06;6193690;23;20385;-72
2022/07/01 21:12:55;;;;;;;20.40;13.20;;;;;;;36.36;44.81;101262.59;6193389;23;20386;-72
2022/07/01 21:15:21;;;;;;;29.07;16.30;;;;;;;36.52;44.44;101264.06;6217925;23;20414;-70
2022/07/01 21:17:47;;;;;;;31.43;17.20;;;;;;;36.40;44.17;101269.06;6218329;23;20378;-70
2022/07/01 21:20:13;;;;;;;27.73;16.53;;;;;;;36.50;44.03;101265.44;6244869;23;20410;-70
2022/07/01 21:22:40;;;;;;;28.33;14.90;;;;;;;36.50;43.46;101270.84;6193491;23;20512;-72
2022/07/01 21:25:07;;;;;;;25.37;14.90;;;;;;;36.57;43.88;101272.09;6218170;23;20442;-72
2022/07/01 21:27:33;;;;;;;21.40;13.93;;;;;;;36.50;43.83;101276.25;6218359;23;20374;-72
2022/07/01 21:29:59;;;;;;;20.40;12.80;;;;;;;36.44;42.79;101277.38;6218268;23;20402;-70
2022/07/01 21:32:25;;;;;;;25.60;13.83;;;;;;;36.29;44.08;101276.44;6245248;23;20409;-71
2022/07/01 21:34:51;;;;;;;42.67;16.83;;;;;;;36.26;44.48;101285.09;6218156;23;20374;-72
2022/07/01 21:37:18;;;;;;;31.93;16.03;;;;;;;36.51;43.98;101285.97;6245505;23;20359;-71
2022/07/01 21:39:44;;;;;;;33.70;16.10;;;;;;;36.26;43.88;101286.97;6192984;23;20438;-69
2022/07/01 21:42:11;;;;;;;21.90;13.83;;;;;;;36.40;43.77;101287.16;6218118;23;20383;-69
2022/07/01 21:44:41;;;;;;;29.17;16.60;;;;;;;36.26;44.00;101297.78;6218089;23;20465;-71
2022/07/01 21:47:09;;;;;;;28.97;18.13;;;;;;;36.35;43.98;101282.59;6219311;23;20382;-71
2022/07/01 21:49:37;;;;;;;28.70;14.90;;;;;;;36.46;43.43;101286.84;6247451;23;20441;-68
2022/07/01 21:52:04;;;;;;;22.43;12.53;;;;;;;36.40;43.97;101287.97;6220139;23;20378;-69
2022/07/01 21:54:31;;;;;;;28.93;14.73;;;;;;;36.23;43.84;101301.06;6219988;23;20378;-69